createdAt,value
2019-03-23T00:00:02.504Z,54.55
2019-03-23T00:05:02.588Z,52.00
2019-03-23T00:10:02.990Z,54.83
2019-03-23T00:15:02.453Z,85.70
2019-03-23T00:20:02.850Z,77.53
2019-03-23T00:25:03.303Z,53.63
2019-03-23T00:30:02.725Z,72.90
2019-03-23T00:35:03.176Z,55.48
2019-03-23T00:40:02.678Z,62.00
2019-03-23T00:45:03.029Z,77.82
2019-03-23T00:50:02.491Z,62.00
2019-03-23T00:55:02.882Z,66.90
2019-03-23T01:00:03.340Z,77.47
2019-03-23T01:05:03.203Z,92.33
2019-03-23T01:10:02.684Z,87.45
2019-03-23T01:15:03.094Z,71.65
2019-03-23T01:20:02.505Z,70.12
2019-03-23T01:25:02.852Z,93.82
2019-03-23T01:30:03.293Z,69.10
2019-03-23T01:35:02.714Z,98.70
2019-03-23T01:40:03.150Z,90.85
2019-03-23T01:45:02.519Z,81.57
2019-03-23T01:50:02.920Z,80.05
2019-03-23T01:55:03.366Z,85.60
2019-03-23T02:00:02.768Z,67.03
2019-03-23T02:05:03.118Z,82.12
2019-03-23T02:10:02.517Z,89.65
2019-03-23T02:15:02.886Z,70.75
2019-03-23T02:20:03.318Z,82.08
2019-03-23T02:25:02.739Z,79.20
2019-03-23T02:30:03.077Z,80.12
2019-03-23T02:35:02.501Z,74.97
2019-03-23T02:40:02.957Z,100.07
2019-03-23T02:45:02.362Z,87.90
2019-03-23T02:50:02.845Z,67.70
2019-03-23T02:55:03.251Z,63.42
2019-03-23T03:00:02.711Z,98.70
2019-03-23T03:05:03.065Z,62.83
2019-03-23T03:10:02.573Z,71.22
2019-03-23T03:15:02.991Z,78.12
2019-03-23T03:20:02.431Z,72.10
2019-03-23T03:25:02.886Z,101.80
2019-03-23T03:30:03.288Z,76.55
2019-03-23T03:35:02.755Z,61.00
2019-03-23T03:40:03.249Z,70.35
2019-03-23T03:45:02.708Z,61.23
2019-03-23T03:50:03.122Z,63.10
2019-03-23T03:55:02.452Z,60.15
2019-03-23T04:00:02.887Z,56.48
2019-03-23T04:05:02.412Z,0
2019-03-23T04:10:02.833Z,59.42
2019-03-23T04:15:03.153Z,56.75
2019-03-23T04:20:02.600Z,45.33
2019-03-23T04:25:03.040Z,53.45
2019-03-23T04:30:02.470Z,53.87
2019-03-23T04:35:02.901Z,51.18
2019-03-23T04:40:02.317Z,48.85
2019-03-23T04:45:02.656Z,44.58
2019-03-23T04:50:03.001Z,45.95
2019-03-23T04:55:02.448Z,39.63
2019-03-23T05:00:02.778Z,45.35
2019-03-23T05:05:03.313Z,34.95
2019-03-23T05:10:02.722Z,37.38
2019-03-23T05:15:03.173Z,52.50
2019-03-23T05:20:02.590Z,47.78
2019-03-23T05:25:03.029Z,39.42
2019-03-23T05:30:02.856Z,42.88
2019-03-23T05:35:03.305Z,45.23
2019-03-23T05:40:02.723Z,42.00
2019-03-23T05:45:03.166Z,40.55
2019-03-23T05:50:02.528Z,41.23
2019-03-23T05:55:02.861Z,37.93
2019-03-23T06:00:03.371Z,43.75
2019-03-23T06:05:02.798Z,41.40
2019-03-23T06:10:03.240Z,43.90
2019-03-23T06:15:02.659Z,40.85
2019-03-23T06:20:04.692Z,39.60
2019-03-23T06:25:03.234Z,44.58
2019-03-23T06:30:02.697Z,36.53
2019-03-23T06:35:03.447Z,35.90
2019-03-23T06:40:03.004Z,34.27
2019-03-23T06:45:02.341Z,50.85
2019-03-23T06:50:02.881Z,45.45
2019-03-23T06:55:03.333Z,46.58
2019-03-23T07:00:02.670Z,44.73
2019-03-23T07:05:03.133Z,50.52
2019-03-23T07:10:06.730Z,0
2019-03-23T07:15:03.162Z,48.78
2019-03-23T07:20:02.502Z,49.55
2019-03-23T07:25:02.838Z,53.55
2019-03-23T07:30:03.370Z,41.23
2019-03-23T07:35:02.781Z,53.63
2019-03-23T07:40:03.220Z,46.88
2019-03-23T07:45:02.646Z,49.15
2019-03-23T07:50:02.987Z,51.40
2019-03-23T07:55:02.406Z,53.25
2019-03-23T08:00:02.842Z,49.40
2019-03-23T08:05:03.232Z,56.23
2019-03-23T08:10:02.071Z,0
2019-03-23T08:15:02.565Z,75.55
2019-03-23T08:20:03.115Z,61.02
2019-03-23T08:25:02.539Z,54.88
2019-03-23T08:30:03.086Z,55.85
2019-03-23T08:35:02.463Z,52.88
2019-03-23T08:40:02.952Z,58.48
2019-03-23T08:45:03.350Z,53.17
2019-03-23T08:50:02.802Z,56.00
2019-03-23T08:55:07.362Z,0
2019-03-23T09:00:02.735Z,51.85
2019-03-23T09:05:03.186Z,59.08
2019-03-23T09:10:02.896Z,52.13
2019-03-23T09:15:03.282Z,47.80
2019-03-23T09:20:03.102Z,56.90
2019-03-23T09:25:02.469Z,42.53
2019-03-23T09:30:03.166Z,51.75
2019-03-23T09:35:02.528Z,63.63
2019-03-23T09:40:10.802Z,36.17
2019-03-23T09:45:04.559Z,50.78
2019-03-23T09:50:02.985Z,48.78
2019-03-23T09:55:02.370Z,50.25
2019-03-23T10:00:02.802Z,49.18
2019-03-23T10:05:05.559Z,45.25
2019-03-23T10:10:03.015Z,48.10
2019-03-23T10:15:02.407Z,49.70
2019-03-23T10:20:02.835Z,45.00
2019-03-23T10:25:03.319Z,41.70
2019-03-23T10:30:02.716Z,44.73
2019-03-23T10:35:03.194Z,46.63
2019-03-23T10:40:01.879Z,0
2019-03-23T10:45:05.406Z,53.98
2019-03-23T10:50:02.789Z,56.92
2019-03-23T10:55:03.211Z,51.23
2019-03-23T11:00:02.599Z,44.53
2019-03-23T11:05:03.078Z,49.85
2019-03-23T11:10:02.554Z,45.10
2019-03-23T11:15:03.035Z,46.68
2019-03-23T11:20:02.414Z,43.70
2019-03-23T11:25:02.820Z,43.02
2019-03-23T11:30:03.248Z,45.55
2019-03-23T11:35:02.723Z,45.25
2019-03-23T11:40:03.365Z,47.58
2019-03-23T11:45:02.700Z,46.10
2019-03-23T11:50:03.135Z,45.60
2019-03-23T11:55:02.538Z,38.42
2019-03-23T12:00:02.893Z,47.93
2019-03-23T12:05:03.243Z,43.55
2019-03-23T12:10:02.747Z,43.05
2019-03-23T12:15:03.093Z,43.90
2019-03-23T12:20:02.522Z,43.28
2019-03-23T12:25:03.058Z,37.83
2019-03-23T12:30:07.095Z,42.67
2019-03-23T12:35:03.038Z,44.03
2019-03-23T12:40:06.616Z,0
2019-03-23T12:45:03.097Z,39.35
2019-03-23T12:50:02.521Z,41.02
2019-03-23T12:55:03.065Z,35.50
2019-03-23T13:00:02.469Z,40.35
2019-03-23T13:05:04.140Z,39.20
2019-03-23T13:10:02.635Z,42.48
2019-03-23T13:15:02.145Z,0
2019-03-23T13:20:02.511Z,42.78
2019-03-23T13:25:02.939Z,42.88
2019-03-23T13:30:03.281Z,38.75
2019-03-23T13:35:02.605Z,36.48
2019-03-23T13:40:03.049Z,37.67
2019-03-23T13:45:02.460Z,40.17
2019-03-23T13:50:02.797Z,41.98
2019-03-23T13:55:03.128Z,38.10
2019-03-23T14:00:02.558Z,33.92
2019-03-23T14:05:02.904Z,38.55
2019-03-23T14:10:03.353Z,37.15
2019-03-23T14:15:02.768Z,40.25
2019-03-23T14:20:03.238Z,37.83
2019-03-23T14:25:02.622Z,39.40
2019-03-23T14:30:03.984Z,36.70
2019-03-23T14:35:02.484Z,32.25
2019-03-23T14:40:02.938Z,32.58
2019-03-23T14:45:03.389Z,43.23
2019-03-23T14:50:02.784Z,38.83
2019-03-23T14:55:03.454Z,39.38
2019-03-23T15:00:02.856Z,35.83
2019-03-23T15:05:03.300Z,33.05
2019-03-23T15:10:02.719Z,36.20
2019-03-23T15:15:03.064Z,34.25
2019-03-23T15:20:02.495Z,24.80
2019-03-23T15:25:03.033Z,26.73
2019-03-23T15:30:02.399Z,25.48
2019-03-23T15:35:02.787Z,25.72
2019-03-23T15:40:03.235Z,29.12
2019-03-23T15:45:02.639Z,26.35
2019-03-23T15:50:02.986Z,35.45
2019-03-23T15:55:03.423Z,30.15
2019-03-23T16:00:02.946Z,26.20
2019-03-23T16:05:03.297Z,22.98
2019-03-23T16:10:02.821Z,20.75
2019-03-23T16:15:03.151Z,23.05
2019-03-23T16:20:02.580Z,19.10
2019-03-23T16:25:03.036Z,17.57
2019-03-23T16:30:02.431Z,12.10
2019-03-23T16:35:02.775Z,18.67
2019-03-23T16:40:02.440Z,0
2019-03-23T16:45:02.834Z,14.23
2019-03-23T16:50:03.187Z,16.80
2019-03-23T16:55:02.597Z,18.92
2019-03-23T17:00:03.036Z,12.43
2019-03-23T17:05:02.578Z,18.48
2019-03-23T17:10:03.026Z,17.85
2019-03-23T17:15:06.553Z,0
2019-03-23T17:20:02.972Z,14.63
2019-03-23T17:25:02.306Z,21.10
2019-03-23T17:30:02.656Z,16.60
2019-03-23T17:35:03.091Z,14.75
2019-03-23T17:40:01.791Z,0
2019-03-23T17:45:03.354Z,14.50
2019-03-23T17:50:02.963Z,15.40
2019-03-23T17:55:02.388Z,12.50
2019-03-23T18:00:02.840Z,12.20
2019-03-23T18:05:03.279Z,9.98
2019-03-23T18:10:02.697Z,10.53
2019-03-23T18:15:03.145Z,12.53
2019-03-23T18:20:02.556Z,14.60
2019-03-23T18:25:02.898Z,12.25
2019-03-23T18:30:03.337Z,10.23
2019-03-23T18:35:03.300Z,11.50
2019-03-23T18:40:02.758Z,16.10
2019-03-23T18:45:03.142Z,14.43
2019-03-23T18:50:02.554Z,8.73
2019-03-23T18:55:02.893Z,11.55
2019-03-23T19:00:03.238Z,7.30
2019-03-23T19:05:02.559Z,7.33
2019-03-23T19:10:03.000Z,11.93
2019-03-23T19:15:02.411Z,11.20
2019-03-23T19:20:02.880Z,12.00
2019-03-23T19:25:03.308Z,11.55
2019-03-23T19:30:02.713Z,9.25
2019-03-23T19:35:03.070Z,12.95
2019-03-23T19:40:02.508Z,12.25
2019-03-23T19:45:02.929Z,9.98
2019-03-23T19:50:03.289Z,6.87
2019-03-23T19:55:02.698Z,6.33
2019-03-23T20:00:03.231Z,10.10
2019-03-23T20:05:02.743Z,8.85
2019-03-23T20:10:02.418Z,0
2019-03-23T20:15:02.824Z,7.45
2019-03-23T20:20:03.263Z,10.38
2019-03-23T20:25:02.617Z,7.08
2019-03-23T20:30:03.020Z,12.53
2019-03-23T20:35:02.453Z,7.62
2019-03-23T20:40:02.857Z,9.33
2019-03-23T20:45:03.251Z,9.18
2019-03-23T20:50:02.644Z,8.08
2019-03-23T20:55:02.995Z,11.28
2019-03-23T21:00:02.397Z,7.05
2019-03-23T21:05:02.767Z,7.97
2019-03-23T21:10:03.196Z,9.18
2019-03-23T21:15:02.606Z,13.05
2019-03-23T21:20:02.947Z,16.85
2019-03-23T21:25:03.391Z,8.38
2019-03-23T21:30:02.809Z,11.68
2019-03-23T21:35:03.353Z,7.72
2019-03-23T21:40:02.772Z,12.13
2019-03-23T21:45:03.115Z,11.12
2019-03-23T21:50:02.641Z,7.97
2019-03-23T21:55:02.970Z,14.00
2019-03-23T22:00:02.295Z,9.75
2019-03-23T22:05:02.714Z,9.40
2019-03-23T22:10:03.213Z,9.38
2019-03-23T22:15:02.598Z,10.65
2019-03-23T22:20:02.945Z,9.53
2019-03-23T22:25:03.295Z,9.78
2019-03-23T22:30:02.695Z,11.83
2019-03-23T22:35:03.152Z,10.50
2019-03-23T22:40:02.529Z,7.28
2019-03-23T22:45:03.236Z,15.32
2019-03-23T22:50:02.563Z,12.13
2019-03-23T22:55:02.919Z,10.78
2019-03-23T23:00:03.309Z,9.60
2019-03-23T23:05:02.778Z,14.15
2019-03-23T23:10:03.176Z,9.73
2019-03-23T23:15:04.874Z,7.53
2019-03-23T23:20:02.563Z,8.63
2019-03-23T23:25:02.970Z,10.53
2019-03-23T23:30:03.317Z,16.30
2019-03-23T23:35:02.727Z,8.73
2019-03-23T23:40:03.168Z,13.43
2019-03-23T23:45:02.515Z,14.13
2019-03-23T23:50:02.931Z,8.10
2019-03-23T23:55:03.267Z,11.15
